Time;durP1;ratioP1;P1;durP2;ratioP2;P2;SDS_P1;SDS_P2;PMS_P1;PMS_P2;Temp;Humidity;BMP_temperature;BMP_pressure;BME280_temperature;BME280_humidity;BME280_pressure;Samples;Min_cycle;Max_cycle;Signal;HPM_P1;HPM_P2
2023/04/03 00:00:41;;;;;;;1.45;0.75;;;13.30;81.50;;;;;;5034923;28;20024;-67
2023/04/03 00:03:07;;;;;;;0.85;0.70;;;13.30;81.60;;;;;;5033679;28;20380;-68
2023/04/03 00:05:33;;;;;;;1.45;0.90;;;13.30;81.60;;;;;;5035017;28;20026;-68
2023/04/03 00:07:58;;;;;;;2.15;0.98;;;13.20;81.70;;;;;;5034986;28;20100;-67
2023/04/03 00:10:24;;;;;;;1.35;0.70;;;13.20;81.50;;;;;;5034767;28;20040;-68
2023/04/03 00:12:50;;;;;;;1.15;0.70;;;13.20;81.40;;;;;;5034702;28;20456;-67
2023/04/03 00:15:16;;;;;;;1.80;0.95;;;13.20;81.70;;;;;;5034746;28;20037;-68
2023/04/03 00:17:42;;;;;;;1.33;0.70;;;13.30;81.60;;;;;;5034648;28;20022;-67
2023/04/03 00:20:08;;;;;;;1.10;0.63;;;13.20;81.50;;;;;;5034745;28;20427;-67
2023/04/03 00:22:34;;;;;;;1.20;1.00;;;13.20;81.70;;;;;;5034677;28;20104;-67
2023/04/03 00:25:00;;;;;;;2.22;1.02;;;13.20;81.70;;;;;;5034635;28;20104;-67
2023/04/03 00:27:25;;;;;;;1.50;0.85;;;13.20;81.70;;;;;;5034473;28;20030;-67
2023/04/03 00:29:51;;;;;;;1.55;0.70;;;13.20;81.60;;;;;;5034196;28;20531;-67
2023/04/03 00:32:18;;;;;;;0.88;0.63;;;13.20;80.90;;;;;;5034309;28;20083;-67
2023/04/03 00:34:44;;;;;;;1.17;0.70;;;13.20;80.70;;;;;;5034336;28;20045;-67
2023/04/03 00:37:10;;;;;;;3.33;0.77;;;13.20;80.60;;;;;;5034616;28;20179;-67
2023/04/03 00:39:35;;;;;;;1.05;0.60;;;13.20;80.70;;;;;;5034208;28;20497;-67
2023/04/03 00:42:01;;;;;;;1.52;0.68;;;13.10;80.60;;;;;;5033783;28;20033;-67
2023/04/03 00:44:33;;;;;;;1.90;0.88;;;13.10;80.20;;;;;;5034226;28;20028;-68
2023/04/03 00:46:59;;;;;;;0.73;0.60;;;13.10;79.90;;;;;;5034320;28;20471;-67
2023/04/03 00:49:25;;;;;;;1.15;0.70;;;13.10;79.70;;;;;;5033812;28;20045;-67
2023/04/03 00:51:51;;;;;;;2.83;0.80;;;13.10;79.20;;;;;;5034152;28;20155;-67
2023/04/03 00:54:17;;;;;;;1.65;0.90;;;13.10;78.50;;;;;;5033885;28;20022;-67
2023/04/03 00:56:44;;;;;;;2.65;0.70;;;13.10;78.90;;;;;;5034006;28;20029;-68
2023/04/03 00:59:14;;;;;;;0.75;0.50;;;13.00;78.00;;;;;;5031197;28;20477;-67
2023/04/03 01:01:41;;;;;;;0.68;0.50;;;13.00;78.10;;;;;;5031242;28;20026;-67
2023/04/03 01:04:26;;;;;;;5.63;0.70;;;13.00;77.40;;;;;;5031114;28;20021;-67
2023/04/03 01:06:53;;;;;;;1.45;0.50;;;13.00;77.40;;;;;;5033120;28;20420;-67
2023/04/03 01:09:18;;;;;;;1.25;0.60;;;12.90;77.50;;;;;;5033527;28;20370;-67
2023/04/03 01:11:45;;;;;;;1.00;0.60;;;12.90;77.40;;;;;;5033718;28;20448;-68
2023/04/03 01:14:10;;;;;;;1.60;0.60;;;12.90;77.50;;;;;;5033086;28;20053;-67
2023/04/03 01:16:36;;;;;;;2.72;0.70;;;12.90;77.10;;;;;;5033347;28;20030;-67
2023/04/03 01:19:05;;;;;;;0.77;0.50;;;12.80;76.60;;;;;;5033405;28;20039;-67
2023/04/03 01:21:56;;;;;;;1.33;0.80;;;12.80;76.80;;;;;;5033053;28;20029;-67
2023/04/03 01:24:36;;;;;;;1.17;0.70;;;12.80;76.80;;;;;;5033370;28;20029;-67
2023/04/03 01:27:05;;;;;;;0.93;0.60;;;12.80;76.80;;;;;;5033278;28;20083;-67
2023/04/03 01:29:31;;;;;;;1.42;0.70;;;12.80;76.20;;;;;;5032908;28;20380;-67
2023/04/03 01:31:59;;;;;;;1.10;0.85;;;12.70;76.50;;;;;;5033046;28;20029;-67
2023/04/03 01:34:26;;;;;;;0.90;0.55;;;12.70;76.00;;;;;;5033049;28;20115;-67
2023/04/03 01:36:52;;;;;;;1.48;0.75;;;12.70;75.50;;;;;;5033030;28;20047;-67
2023/04/03 01:39:18;;;;;;;4.05;0.90;;;12.60;75.50;;;;;;5033405;28;20309;-68
2023/04/03 01:41:44;;;;;;;2.00;0.80;;;12.60;75.50;;;;;;5033151;28;20033;-68
2023/04/03 01:44:10;;;;;;;2.20;0.90;;;12.60;74.80;;;;;;5032563;28;20045;-67
2023/04/03 01:46:37;;;;;;;1.55;0.90;;;12.60;73.70;;;;;;5032984;28;20399;-67
2023/04/03 01:49:03;;;;;;;1.00;0.80;;;12.50;73.80;;;;;;5032712;28;20049;-68
2023/04/03 01:51:29;;;;;;;1.73;0.80;;;12.60;73.20;;;;;;5032977;28;20040;-67
2023/04/03 01:53:55;;;;;;;1.40;1.10;;;12.60;72.80;;;;;;5032843;28;20029;-68
2023/04/03 01:56:21;;;;;;;1.65;0.75;;;12.60;72.20;;;;;;5032763;28;20481;-67
2023/04/03 01:58:47;;;;;;;1.88;0.90;;;12.50;72.10;;;;;;5033079;28;20072;-68
2023/04/03 02:01:13;;;;;;;1.23;0.90;;;12.50;71.90;;;;;;5032775;28;20030;-67
2023/04/03 02:03:39;;;;;;;1.60;0.90;;;12.50;71.70;;;;;;5032941;28;20065;-68
2023/04/03 02:06:05;;;;;;;1.05;0.80;;;12.40;71.60;;;;;;5032774;28;20037;-68
2023/04/03 02:08:31;;;;;;;4.13;0.90;;;12.40;71.50;;;;;;5032833;28;20025;-67
2023/04/03 02:10:56;;;;;;;1.83;1.20;;;12.40;71.70;;;;;;5032839;28;20087;-67
2023/04/03 02:13:22;;;;;;;1.60;0.80;;;12.30;71.60;;;;;;5032392;28;20059;-68
2023/04/03 02:15:48;;;;;;;1.10;0.73;;;12.30;71.10;;;;;;5032765;28;20476;-67
2023/04/03 02:18:15;;;;;;;2.95;0.85;;;12.40;71.10;;;;;;5032769;28;20034;-67
2023/04/03 02:20:40;;;;;;;1.23;0.90;;;12.40;70.50;;;;;;5032531;28;20061;-67
2023/04/03 02:23:06;;;;;;;3.28;0.60;;;12.30;70.30;;;;;;5033012;28;20045;-67
2023/04/03 02:25:32;;;;;;;1.30;0.80;;;12.30;70.70;;;;;;5032193;28;20138;-67
2023/04/03 02:27:58;;;;;;;2.65;0.90;;;12.20;70.90;;;;;;5035638;28;20049;-67
2023/04/03 02:30:24;;;;;;;1.92;0.98;;;12.20;71.10;;;;;;5036535;28;20033;-67
2023/04/03 02:32:50;;;;;;;1.42;1.15;;;12.20;70.80;;;;;;5036433;28;20025;-67
2023/04/03 02:35:16;;;;;;;1.98;0.93;;;12.20;70.60;;;;;;5036369;28;20041;-67
2023/04/03 02:37:41;;;;;;;2.92;1.00;;;12.20;70.80;;;;;;5036479;28;20029;-67
2023/04/03 02:40:08;;;;;;;3.72;1.10;;;12.20;70.50;;;;;;5036244;28;20022;-67
2023/04/03 02:42:34;;;;;;;1.52;1.25;;;12.20;70.40;;;;;;5036455;28;20116;-67
2023/04/03 02:45:02;;;;;;;2.45;1.15;;;12.20;70.20;;;;;;5036412;28;20088;-67
2023/04/03 02:47:28;;;;;;;1.52;1.00;;;12.20;70.20;;;;;;5036498;28;20026;-68
2023/04/03 02:49:54;;;;;;;1.65;1.10;;;12.10;70.30;;;;;;5036432;28;20045;-67
2023/04/03 02:52:20;;;;;;;1.42;1.10;;;12.10;70.30;;;;;;5036295;28;20022;-67
2023/04/03 02:54:46;;;;;;;1.98;1.30;;;12.10;70.40;;;;;;5036098;28;20516;-67
2023/04/03 02:57:12;;;;;;;2.58;1.15;;;12.10;70.40;;;;;;5036198;28;20030;-67
2023/04/03 02:59:41;;;;;;;1.60;0.88;;;12.00;70.60;;;;;;5036419;28;20025;-67
2023/04/03 03:02:10;;;;;;;5.28;1.00;;;12.00;71.40;;;;;;5036063;28;20120;-67
2023/04/03 03:04:36;;;;;;;4.22;1.55;;;11.90;71.70;;;;;;5036028;28;20532;-67
2023/04/03 03:07:02;;;;;;;1.92;1.15;;;11.80;71.80;;;;;;5036212;28;20113;-67
2023/04/03 03:09:29;;;;;;;2.50;1.23;;;11.80;71.60;;;;;;5035982;28;20101;-67
2023/04/03 03:11:55;;;;;;;4.40;1.17;;;11.80;71.40;;;;;;5035799;28;20037;-68
2023/04/03 03:14:21;;;;;;;2.38;1.20;;;11.80;71.10;;;;;;5035827;28;20055;-68
2023/04/03 03:16:46;;;;;;;2.25;1.15;;;11.80;70.90;;;;;;5035810;28;20018;-67
2023/04/03 03:19:12;;;;;;;2.47;1.20;;;11.70;71.00;;;;;;5035853;28;20032;-68
2023/04/03 03:21:38;;;;;;;1.45;1.20;;;11.70;70.90;;;;;;5035597;28;20500;-67
2023/04/03 03:24:04;;;;;;;3.78;1.20;;;11.70;70.80;;;;;;5035582;28;20107;-67
2023/04/03 03:26:30;;;;;;;2.85;1.10;;;11.70;70.60;;;;;;5035608;28;20024;-67
2023/04/03 03:28:55;;;;;;;2.58;1.20;;;11.70;70.00;;;;;;5035687;28;20022;-67
2023/04/03 03:31:21;;;;;;;2.33;1.20;;;11.60;69.90;;;;;;5035780;28;20025;-67
2023/04/03 03:33:47;;;;;;;2.88;1.10;;;11.60;70.20;;;;;;5035416;28;20017;-67
2023/04/03 03:36:13;;;;;;;1.90;1.30;;;11.60;70.00;;;;;;5035223;28;20168;-67
2023/04/03 03:38:39;;;;;;;1.42;1.10;;;11.50;70.00;;;;;;5034872;28;20025;-67
2023/04/03 03:41:05;;;;;;;2.30;1.13;;;11.50;69.80;;;;;;5034776;28;20372;-67
2023/04/03 03:43:30;;;;;;;3.08;1.30;;;11.50;69.50;;;;;;5035026;28;20021;-67
2023/04/03 03:45:56;;;;;;;1.85;1.20;;;11.50;69.20;;;;;;5035288;28;20029;-67
2023/04/03 03:48:22;;;;;;;1.25;1.10;;;11.50;69.00;;;;;;5034969;28;20120;-67
2023/04/03 03:50:48;;;;;;;2.83;0.98;;;11.40;68.90;;;;;;5034914;28;20049;-67
2023/04/03 03:53:14;;;;;;;3.72;1.00;;;11.40;68.60;;;;;;5035057;28;20508;-67
2023/04/03 03:55:41;;;;;;;3.05;0.90;;;11.40;68.40;;;;;;5034829;28;20049;-67
2023/04/03 03:58:07;;;;;;;1.65;1.10;;;11.40;67.90;;;;;;5035154;28;20539;-68
2023/04/03 04:00:32;;;;;;;1.65;1.30;;;11.40;68.10;;;;;;5034739;28;20037;-67
2023/04/03 04:02:58;;;;;;;2.53;1.20;;;11.40;67.90;;;;;;5035017;28;20414;-68
2023/04/03 04:05:24;;;;;;;1.55;1.23;;;11.40;67.20;;;;;;5034895;28;20026;-67
2023/04/03 04:07:50;;;;;;;3.40;1.25;;;11.30;67.00;;;;;;5034853;28;20029;-68
2023/04/03 04:10:16;;;;;;;4.38;1.42;;;11.30;67.00;;;;;;5034615;28;20032;-67
2023/04/03 04:12:42;;;;;;;1.83;1.20;;;11.20;67.00;;;;;;5034935;28;20029;-67
2023/04/03 04:15:08;;;;;;;2.13;1.35;;;11.20;66.90;;;;;;5034769;28;20042;-67
2023/04/03 04:17:35;;;;;;;1.58;1.20;;;11.20;66.70;;;;;;5033355;28;20121;-67
2023/04/03 04:20:02;;;;;;;1.40;0.93;;;11.20;66.00;;;;;;5034522;28;20025;-67
2023/04/03 04:22:28;;;;;;;3.70;1.50;;;11.20;66.60;;;;;;5033425;28;20021;-68
2023/04/03 04:24:54;;;;;;;39.22;3.60;;;11.10;66.20;;;;;;5034198;28;20029;-68
2023/04/03 04:27:19;;;;;;;2.30;1.48;;;11.10;66.50;;;;;;5034411;28;20116;-68
2023/04/03 04:29:45;;;;;;;5.07;1.63;;;11.00;65.80;;;;;;5034245;28;20485;-68
2023/04/03 04:32:11;;;;;;;2.53;1.40;;;11.00;66.30;;;;;;5034122;28;20036;-68
2023/04/03 04:34:37;;;;;;;1.75;1.10;;;11.00;66.80;;;;;;5034336;28;20033;-68
2023/04/03 04:37:03;;;;;;;1.75;1.10;;;11.00;66.40;;;;;;5034189;28;20026;-68
2023/04/03 04:39:28;;;;;;;3.35;1.20;;;11.00;65.70;;;;;;5034210;28;20140;-68
2023/04/03 04:41:55;;;;;;;1.93;1.20;;;10.90;65.20;;;;;;5034048;28;20048;-67
2023/04/03 04:44:20;;;;;;;1.92;1.25;;;10.80;65.10;;;;;;5033833;28;20025;-68
2023/04/03 04:46:46;;;;;;;3.30;1.30;;;10.80;65.00;;;;;;5033843;28;20030;-68
2023/04/03 04:49:12;;;;;;;1.77;1.27;;;10.80;65.30;;;;;;5033071;28;20049;-68
2023/04/03 04:51:37;;;;;;;1.85;1.20;;;10.80;65.00;;;;;;5034209;28;20049;-67
2023/04/03 04:54:03;;;;;;;3.22;1.25;;;10.70;65.00;;;;;;5033992;28;20025;-68
2023/04/03 04:56:29;;;;;;;1.65;1.27;;;10.70;64.80;;;;;;5034077;28;20033;-68
2023/04/03 04:58:55;;;;;;;1.85;1.13;;;10.70;64.40;;;;;;5033831;28;20363;-68
2023/04/03 05:01:21;;;;;;;2.57;1.27;;;10.70;64.20;;;;;;5033867;28;20030;-67
2023/04/03 05:03:47;;;;;;;4.63;1.53;;;10.60;64.10;;;;;;5032642;28;20036;-68
2023/04/03 05:06:13;;;;;;;2.15;1.25;;;10.60;64.30;;;;;;5032322;28;20057;-68
2023/04/03 05:08:39;;;;;;;2.27;1.30;;;10.60;64.20;;;;;;5033492;28;20040;-68
2023/04/03 05:11:05;;;;;;;1.33;1.10;;;10.60;63.60;;;;;;5033586;28;20030;-68
2023/04/03 05:13:31;;;;;;;3.10;1.40;;;10.60;63.10;;;;;;5033704;28;20021;-68
2023/04/03 05:15:56;;;;;;;1.95;1.27;;;10.60;63.10;;;;;;5033061;28;20042;-68
2023/04/03 05:18:22;;;;;;;2.20;1.50;;;10.50;62.90;;;;;;5033221;28;20466;-68
2023/04/03 05:20:51;;;;;;;2.60;1.30;;;10.50;63.10;;;;;;5033242;28;20038;-68
2023/04/03 05:23:17;;;;;;;1.73;1.30;;;10.50;63.40;;;;;;5033198;28;20148;-68
2023/04/03 05:25:45;;;;;;;4.13;1.50;;;10.50;62.80;;;;;;5033439;28;20528;-68
2023/04/03 05:28:11;;;;;;;2.13;1.50;;;10.40;63.00;;;;;;5033297;28;20389;-67
2023/04/03 05:30:37;;;;;;;2.37;1.40;;;10.40;63.30;;;;;;5028405;28;20533;-68
2023/04/03 05:33:03;;;;;;;1.77;1.10;;;10.40;63.00;;;;;;5013347;28;20129;-67
2023/04/03 05:35:29;;;;;;;1.60;1.20;;;10.40;62.30;;;;;;5013031;28;20536;-67
2023/04/03 05:37:55;;;;;;;1.70;1.05;;;10.40;62.20;;;;;;5013158;28;20110;-68
2023/04/03 05:40:21;;;;;;;1.80;1.20;;;10.40;62.20;;;;;;5013726;28;20034;-68
2023/04/03 05:42:46;;;;;;;2.00;1.07;;;10.40;62.00;;;;;;5013334;28;20113;-68
2023/04/03 05:45:12;;;;;;;1.40;1.10;;;10.30;61.80;;;;;;5013328;28;20109;-68
2023/04/03 05:47:38;;;;;;;3.83;1.35;;;10.30;62.10;;;;;;5013222;28;20389;-68
2023/04/03 05:50:05;;;;;;;2.43;1.40;;;10.30;62.60;;;;;;5013060;28;20459;-68
2023/04/03 05:52:35;;;;;;;2.55;1.10;;;10.30;62.30;;;;;;5013342;28;20028;-68
2023/04/03 05:55:00;;;;;;;2.60;1.43;;;10.40;62.50;;;;;;5013137;28;20112;-68
2023/04/03 05:57:26;;;;;;;3.73;1.20;;;10.40;62.40;;;;;;5013158;28;20054;-67
2023/04/03 05:59:52;;;;;;;2.50;1.50;;;10.40;62.10;;;;;;5012954;28;20367;-67
2023/04/03 06:02:20;;;;;;;7.27;1.60;;;10.30;61.70;;;;;;5012690;28;20026;-68
2023/04/03 06:04:47;;;;;;;4.17;1.07;;;10.30;61.90;;;;;;5011338;28;20105;-68
2023/04/03 06:07:20;;;;;;;2.15;1.40;;;10.30;62.00;;;;;;5009488;28;20534;-68
2023/04/03 06:09:46;;;;;;;2.83;1.20;;;10.40;61.70;;;;;;5010967;28;20030;-68
2023/04/03 06:12:12;;;;;;;2.45;1.10;;;10.40;61.30;;;;;;5011119;28;20026;-68
2023/04/03 06:14:38;;;;;;;1.70;1.20;;;10.40;61.70;;;;;;5011982;28;20026;-68
2023/04/03 06:17:04;;;;;;;2.33;1.40;;;10.40;61.90;;;;;;5012219;28;20021;-68
2023/04/03 06:19:30;;;;;;;2.00;1.10;;;10.40;60.90;;;;;;5012701;28;20415;-67
2023/04/03 06:21:56;;;;;;;3.70;1.47;;;10.40;60.50;;;;;;5011944;28;20037;-69
2023/04/03 06:24:23;;;;;;;2.67;1.50;;;10.40;61.10;;;;;;5012237;28;20371;-69
2023/04/03 06:26:51;;;;;;;1.63;1.20;;;10.50;61.20;;;;;;5010866;28;20026;-69
2023/04/03 06:29:17;;;;;;;1.83;1.10;;;10.40;60.90;;;;;;5021368;28;20385;-69
2023/04/03 06:31:44;;;;;;;2.03;1.20;;;10.50;60.70;;;;;;5032065;28;20040;-68
2023/04/03 06:34:11;;;;;;;1.97;1.10;;;10.50;61.10;;;;;;5032361;28;20136;-69
2023/04/03 06:36:37;;;;;;;4.10;1.20;;;10.50;61.20;;;;;;5031302;28;20044;-68
2023/04/03 06:39:03;;;;;;;3.47;1.20;;;10.50;60.80;;;;;;5016003;28;20026;-69
2023/04/03 06:41:29;;;;;;;4.00;2.00;;;10.60;60.80;;;;;;5011567;28;20025;-69
2023/04/03 06:43:57;;;;;;;2.70;1.27;;;10.60;60.90;;;;;;5011837;28;20065;-70
2023/04/03 06:46:23;;;;;;;1.43;1.20;;;10.70;60.40;;;;;;5011456;28;20026;-69
2023/04/03 06:48:49;;;;;;;2.25;1.23;;;10.70;59.00;;;;;;5011735;28;20049;-70
2023/04/03 06:51:20;;;;;;;2.40;1.40;;;10.70;59.80;;;;;;5011032;28;20066;-69
2023/04/03 06:53:48;;;;;;;1.87;1.20;;;10.80;58.90;;;;;;5011854;28;20029;-69
2023/04/03 06:56:14;;;;;;;3.17;1.60;;;10.80;57.60;;;;;;5009255;28;20367;-69
2023/04/03 06:58:41;;;;;;;5.55;1.50;;;10.90;58.70;;;;;;5011145;28;20109;-69
2023/04/03 07:01:08;;;;;;;1.92;1.20;;;10.80;59.00;;;;;;5011169;28;20099;-69
2023/04/03 07:03:33;;;;;;;1.65;1.20;;;10.90;58.20;;;;;;5011243;28;20459;-69
2023/04/03 07:05:59;;;;;;;1.45;1.10;;;10.90;58.60;;;;;;5011070;28;20026;-69
2023/04/03 07:08:25;;;;;;;3.65;1.13;;;11.00;57.80;;;;;;5011878;28;20030;-69
2023/04/03 07:10:51;;;;;;;3.00;1.42;;;11.00;57.70;;;;;;5011661;28;20390;-70
2023/04/03 07:13:17;;;;;;;10.40;1.35;;;11.00;58.50;;;;;;5014083;28;20037;-70
2023/04/03 07:15:43;;;;;;;1.10;0.93;;;11.10;56.60;;;;;;5015259;28;20041;-69
2023/04/03 07:18:09;;;;;;;2.35;1.25;;;11.10;56.70;;;;;;5015565;28;20022;-69
2023/04/03 07:20:35;;;;;;;4.70;1.20;;;11.20;57.40;;;;;;5014301;28;20444;-69
2023/04/03 07:23:01;;;;;;;2.17;1.30;;;11.10;58.10;;;;;;5014950;28;20075;-69
2023/04/03 07:25:28;;;;;;;6.37;1.20;;;11.20;56.20;;;;;;5015553;28;20421;-69
2023/04/03 07:27:54;;;;;;;1.77;0.90;;;11.20;56.30;;;;;;5015650;28;20414;-69
2023/04/03 07:30:20;;;;;;;2.15;1.27;;;11.20;55.80;;;;;;5014387;28;20028;-68
2023/04/03 07:32:46;;;;;;;1.50;0.93;;;11.20;55.60;;;;;;5013640;28;20048;-69
2023/04/03 07:35:12;;;;;;;1.90;1.05;;;11.30;56.40;;;;;;5012252;28;20049;-69
2023/04/03 07:37:38;;;;;;;1.80;1.02;;;11.30;56.60;;;;;;5013733;28;20034;-69
2023/04/03 07:40:06;;;;;;;2.78;1.10;;;11.30;55.70;;;;;;5013887;28;20032;-69
2023/04/03 07:42:32;;;;;;;2.83;1.10;;;11.30;55.50;;;;;;5013737;28;20021;-69
2023/04/03 07:44:58;;;;;;;1.77;1.10;;;11.40;56.10;;;;;;5013458;28;20501;-69
2023/04/03 07:47:24;;;;;;;5.10;1.27;;;11.40;55.60;;;;;;5015110;28;20034;-69
2023/04/03 07:49:49;;;;;;;2.92;1.20;;;11.50;55.90;;;;;;5015019;28;20054;-69
2023/04/03 07:52:15;;;;;;;3.45;0.98;;;11.60;54.80;;;;;;5015405;28;20057;-69
2023/04/03 07:54:42;;;;;;;3.60;1.10;;;11.60;54.30;;;;;;5013516;28;20025;-69
2023/04/03 07:57:07;;;;;;;1.80;1.17;;;11.70;54.70;;;;;;5014996;28;20034;-69
2023/04/03 07:59:33;;;;;;;2.65;1.00;;;11.70;54.20;;;;;;5015049;28;20034;-69
2023/04/03 08:01:59;;;;;;;3.30;1.40;;;11.70;53.60;;;;;;5015046;28;20026;-69
2023/04/03 08:04:25;;;;;;;1.83;1.17;;;11.70;53.70;;;;;;5014990;28;20033;-68
2023/04/03 08:06:52;;;;;;;1.75;0.95;;;11.80;54.70;;;;;;5014585;28;20104;-69
2023/04/03 08:09:19;;;;;;;4.07;1.15;;;11.80;53.80;;;;;;5014928;28;20484;-69
2023/04/03 08:11:45;;;;;;;1.50;1.00;;;11.80;53.80;;;;;;5014894;28;20037;-68
2023/04/03 08:14:16;;;;;;;1.77;0.98;;;11.80;54.10;;;;;;5014849;28;20068;-69
2023/04/03 08:16:43;;;;;;;1.63;1.05;;;11.90;52.90;;;;;;5014086;28;20045;-68
2023/04/03 08:19:10;;;;;;;2.80;1.23;;;12.00;52.70;;;;;;5014646;28;20026;-69
2023/04/03 08:21:36;;;;;;;2.33;1.30;;;12.00;53.10;;;;;;5014661;28;20026;-69
2023/04/03 08:24:03;;;;;;;2.03;1.02;;;12.10;52.80;;;;;;5013410;28;20501;-69
2023/04/03 08:26:28;;;;;;;2.03;1.10;;;12.10;52.70;;;;;;5014283;28;20445;-69
2023/04/03 08:28:54;;;;;;;1.20;0.88;;;12.20;53.10;;;;;;5014817;28;20048;-69
2023/04/03 08:31:20;;;;;;;1.98;0.90;;;12.20;52.80;;;;;;5014562;28;20033;-69
2023/04/03 08:33:46;;;;;;;2.42;1.05;;;12.20;53.10;;;;;;5014685;28;20026;-69
2023/04/03 08:36:27;;;;;;;2.85;1.02;;;12.20;52.40;;;;;;5014558;28;20033;-69
2023/04/03 08:38:54;;;;;;;1.33;0.80;;;12.30;51.70;;;;;;5014508;28;20022;-69
2023/04/03 08:41:32;;;;;;;7.30;0.90;;;12.30;52.90;;;;;;5014853;28;20036;-69
2023/04/03 08:44:00;;;;;;;1.27;0.90;;;12.30;53.30;;;;;;5014398;28;20532;-69
2023/04/03 08:46:47;;;;;;;4.22;0.85;;;12.50;53.30;;;;;;5014439;28;20033;-69
2023/04/03 08:49:27;;;;;;;1.58;1.00;;;12.50;53.90;;;;;;5017929;28;20536;-70
2023/04/03 08:51:54;;;;;;;3.95;1.00;;;12.60;53.30;;;;;;5034185;28;20116;-69
2023/04/03 08:54:43;;;;;;;2.17;1.00;;;12.80;53.60;;;;;;5034099;28;20018;-69
2023/04/03 08:57:12;;;;;;;1.02;0.90;;;12.80;53.50;;;;;;5034008;28;20482;-69
2023/04/03 08:59:40;;;;;;;5.22;1.70;;;12.90;53.40;;;;;;5031152;28;20028;-69
2023/04/03 09:02:20;;;;;;;2.10;1.38;;;13.00;53.50;;;;;;5033766;28;20069;-69
2023/04/03 09:04:46;;;;;;;2.95;2.10;;;13.00;52.50;;;;;;5034173;28;20461;-69
2023/04/03 09:07:25;;;;;;;2.95;1.15;;;13.10;52.30;;;;;;5034147;28;20036;-69
2023/04/03 09:09:52;;;;;;;1.50;1.20;;;13.20;52.40;;;;;;5034042;28;20035;-69
2023/04/03 09:12:29;;;;;;;1.85;1.05;;;13.30;49.40;;;;;;5033812;28;20526;-69
2023/04/03 09:15:23;;;;;;;3.42;1.08;;;13.40;51.10;;;;;;5033927;28;20109;-69
2023/04/03 09:18:16;;;;;;;1.25;0.80;;;13.40;52.30;;;;;;5033918;28;20456;-69
2023/04/03 09:20:57;;;;;;;2.22;1.00;;;13.50;52.20;;;;;;5033728;28;20381;-69
2023/04/03 09:23:43;;;;;;;2.20;1.27;;;13.60;51.40;;;;;;5033718;28;20025;-69
2023/04/03 09:26:43;;;;;;;1.40;0.95;;;13.60;50.90;;;;;;5033634;28;20092;-69
2023/04/03 09:29:14;;;;;;;1.75;1.17;;;13.70;51.10;;;;;;4992299;28;20098;-69
2023/04/03 09:31:42;;;;;;;3.40;0.98;;;13.80;51.00;;;;;;5033531;28;20036;-69
2023/04/03 09:34:27;;;;;;;2.75;0.80;;;13.90;50.70;;;;;;5033437;28;20021;-69
2023/04/03 09:37:05;;;;;;;1.10;0.80;;;13.90;50.60;;;;;;5033071;28;20489;-69
2023/04/03 09:39:32;;;;;;;3.50;0.95;;;14.00;50.00;;;;;;5033554;28;20028;-69
2023/04/03 09:42:02;;;;;;;3.38;1.13;;;14.10;49.00;;;;;;5033321;28;20025;-69
2023/04/03 09:44:38;;;;;;;2.35;1.20;;;14.10;47.80;;;;;;5033884;28;20427;-69
2023/04/03 09:47:25;;;;;;;1.58;0.95;;;14.10;47.90;;;;;;5033474;28;20370;-69
2023/04/03 09:50:08;;;;;;;2.63;0.93;;;14.10;48.50;;;;;;5033102;28;20316;-71
2023/04/03 09:52:34;;;;;;;4.35;0.98;;;14.10;48.90;;;;;;5033447;28;20056;-69
2023/04/03 09:55:08;;;;;;;3.72;1.02;;;14.20;48.60;;;;;;5033165;28;20080;-69
2023/04/03 09:57:34;;;;;;;1.52;1.05;;;14.20;47.20;;;;;;5032057;28;20029;-69
2023/04/03 10:00:04;;;;;;;1.33;1.05;;;14.30;48.10;;;;;;5033094;28;20021;-69
2023/04/03 10:02:42;;;;;;;2.45;1.00;;;14.40;47.80;;;;;;5033133;28;20021;-69
2023/04/03 10:05:26;;;;;;;1.90;1.00;;;14.50;46.50;;;;;;5032921;28;20481;-69
2023/04/03 10:07:52;;;;;;;0.80;0.65;;;14.50;47.90;;;;;;5032958;28;20025;-69
2023/04/03 10:10:19;;;;;;;1.77;0.80;;;14.60;48.00;;;;;;5033015;28;20021;-69
2023/04/03 10:12:46;;;;;;;7.78;0.90;;;14.70;46.70;;;;;;5033066;28;20071;-69
2023/04/03 10:15:13;;;;;;;1.70;0.85;;;14.80;45.30;;;;;;5032902;28;20035;-69
2023/04/03 10:17:42;;;;;;;1.23;0.60;;;14.90;44.90;;;;;;5033252;28;20026;-69
2023/04/03 10:20:33;;;;;;;5.00;0.95;;;14.90;45.20;;;;;;5033107;28;20129;-69
2023/04/03 10:23:19;;;;;;;1.60;0.90;;;15.00;45.50;;;;;;5032443;28;20496;-69
2023/04/03 10:26:15;;;;;;;2.20;0.90;;;15.00;45.20;;;;;;5032708;28;20911;-69
2023/04/03 10:28:44;;;;;;;1.55;0.80;;;15.10;45.50;;;;;;5032678;28;20731;-69
2023/04/03 10:31:33;;;;;;;1.45;0.95;;;15.20;44.10;;;;;;5032547;28;20390;-69
2023/04/03 10:34:02;;;;;;;2.45;1.05;;;15.30;45.40;;;;;;5032775;28;20034;-69
2023/04/03 10:36:49;;;;;;;1.23;0.90;;;15.30;45.30;;;;;;5032560;28;20120;-69
2023/04/03 10:39:49;;;;;;;1.45;0.85;;;15.40;45.60;;;;;;5032503;28;20022;-69
2023/04/03 10:42:35;;;;;;;3.92;0.93;;;15.60;49.10;;;;;;5032296;28;20026;-69
2023/04/03 10:45:19;;;;;;;2.00;0.70;;;15.80;48.40;;;;;;5030506;28;20025;-69
2023/04/03 10:48:16;;;;;;;1.67;0.90;;;15.80;42.80;;;;;;5033689;28;20057;-69
2023/04/03 10:51:00;;;;;;;1.30;0.70;;;15.80;42.10;;;;;;5035886;28;20049;-69
2023/04/03 10:53:45;;;;;;;2.13;0.90;;;15.80;42.40;;;;;;5016307;28;20014;-69
2023/04/03 10:56:29;;;;;;;3.20;0.80;;;15.90;43.40;;;;;;5020082;28;20040;-69
2023/04/03 10:59:17;;;;;;;1.10;0.68;;;15.90;42.20;;;;;;5035758;28;20091;-69
2023/04/03 11:01:47;;;;;;;1.20;0.65;;;15.90;42.00;;;;;;5035929;28;20025;-69
2023/04/03 11:04:16;;;;;;;3.25;1.75;;;16.00;42.20;;;;;;5035819;28;20116;-69
2023/04/03 11:07:09;;;;;;;1.38;0.50;;;16.10;42.80;;;;;;5035432;28;20477;-69
2023/04/03 11:09:38;;;;;;;1.33;0.70;;;16.20;46.20;;;;;;5034609;28;20029;-69
2023/04/03 11:12:15;;;;;;;2.33;0.90;;;16.20;41.70;;;;;;5036034;28;20133;-69
2023/04/03 11:14:42;;;;;;;2.97;0.75;;;16.30;40.80;;;;;;5035844;28;20025;-69
2023/04/03 11:17:22;;;;;;;0.85;0.57;;;16.40;40.50;;;;;;5036107;28;20018;-69
2023/04/03 11:19:54;;;;;;;0.85;0.50;;;16.40;40.20;;;;;;5035895;28;20432;-69
2023/04/03 11:22:32;;;;;;;1.13;0.70;;;16.50;40.50;;;;;;5035772;28;20385;-70
2023/04/03 11:25:13;;;;;;;1.00;0.70;;;16.60;39.50;;;;;;5035947;28;20556;-69
2023/04/03 11:28:01;;;;;;;0.70;0.65;;;16.60;40.00;;;;;;5035631;28;20032;-69
2023/04/03 11:31:06;;;;;;;1.38;0.60;;;16.70;41.30;;;;;;5035363;28;20022;-69
2023/04/03 11:34:09;;;;;;;11.68;0.98;;;16.90;39.60;;;;;;5032702;28;20038;-70
2023/04/03 11:36:40;;;;;;;3.38;0.90;;;16.90;39.10;;;;;;5035506;28;20044;-69
2023/04/03 11:39:35;;;;;;;8.82;1.00;;;17.00;39.10;;;;;;5035184;28;20049;-69
2023/04/03 11:42:25;;;;;;;2.85;0.70;;;17.10;38.50;;;;;;5018859;28;20407;-69
2023/04/03 11:45:11;;;;;;;10.75;0.85;;;17.10;38.70;;;;;;5007986;28;20080;-70
2023/04/03 11:47:49;;;;;;;3.58;0.57;;;17.10;36.90;;;;;;5015593;28;20052;-69
2023/04/03 11:50:43;;;;;;;0.70;0.47;;;17.20;37.90;;;;;;5015444;28;20109;-70
2023/04/03 11:53:12;;;;;;;0.80;0.60;;;17.20;38.50;;;;;;5013154;28;20041;-70
2023/04/03 11:55:49;;;;;;;3.42;0.52;;;17.30;38.00;;;;;;5015447;28;20474;-70
2023/04/03 11:58:18;;;;;;;3.70;0.60;;;17.40;39.00;;;;;;5013956;28;20032;-70
2023/04/03 12:00:47;;;;;;;2.15;0.60;;;17.50;38.60;;;;;;5015344;28;20040;-70
2023/04/03 12:03:25;;;;;;;3.95;1.05;;;17.50;37.40;;;;;;5015345;28;20029;-69
2023/04/03 12:06:14;;;;;;;1.73;0.60;;;17.60;38.40;;;;;;5015306;28;20034;-70
2023/04/03 12:08:40;;;;;;;0.80;0.50;;;17.60;37.10;;;;;;4986187;28;20084;-69
2023/04/03 12:11:08;;;;;;;4.65;0.52;;;17.70;36.70;;;;;;5015220;28;20017;-70
2023/04/03 12:14:04;;;;;;;0.98;0.63;;;17.80;37.60;;;;;;5015055;28;20755;-69
2023/04/03 12:16:32;;;;;;;1.00;0.50;;;17.80;37.50;;;;;;5002839;28;20046;-69
2023/04/03 12:19:40;;;;;;;1.58;0.50;;;17.80;36.50;;;;;;5015199;28;20105;-69
2023/04/03 12:22:08;;;;;;;1.08;0.50;;;17.90;36.70;;;;;;5014699;28;20107;-69
2023/04/03 12:24:39;;;;;;;2.10;0.50;;;18.00;37.30;;;;;;5014274;28;20438;-69
2023/04/03 12:27:16;;;;;;;2.38;0.70;;;18.00;37.80;;;;;;5014768;28;20076;-69
2023/04/03 12:30:03;;;;;;;1.33;0.95;;;18.20;37.00;;;;;;5014679;28;20045;-69
2023/04/03 12:32:51;;;;;;;0.45;0.38;;;18.20;36.90;;;;;;5014459;28;20575;-69
2023/04/03 12:35:39;;;;;;;2.13;0.50;;;18.30;37.30;;;;;;5013467;28;20038;-70
2023/04/03 12:38:25;;;;;;;2.08;0.50;;;18.40;36.70;;;;;;5014407;28;20117;-69
2023/04/03 12:41:14;;;;;;;8.73;0.90;;;18.50;35.70;;;;;;5015041;28;20429;-70
2023/04/03 12:44:01;;;;;;;1.20;0.45;;;18.50;35.00;;;;;;5014668;28;20026;-69
2023/04/03 12:46:37;;;;;;;1.90;0.43;;;18.50;35.10;;;;;;5014456;28;20053;-69
2023/04/03 12:49:26;;;;;;;1.20;0.50;;;18.50;35.40;;;;;;5013587;28;20494;-70
2023/04/03 12:51:52;;;;;;;1.15;0.60;;;18.50;35.80;;;;;;5013274;28;20664;-69
2023/04/03 12:54:35;;;;;;;0.80;0.60;;;18.50;35.00;;;;;;5014554;28;20021;-69
2023/04/03 12:57:15;;;;;;;4.00;0.50;;;18.50;35.10;;;;;;5014570;28;20044;-70
2023/04/03 12:59:41;;;;;;;1.60;0.35;;;18.60;34.30;;;;;;5014177;28;20505;-69
2023/04/03 13:02:27;;;;;;;1.45;0.77;;;18.60;34.90;;;;;;5014357;28;20486;-70